sensor_id;sensor_type;location;lat;lon;timestamp;temperature;humidity
4964;DHT22;2497;47.410;9.740;2023-02-28T00:00:37;-1.40;99.90
4964;DHT22;2497;47.410;9.740;2023-02-28T00:03:05;-1.40;99.90
4964;DHT22;2497;47.410;9.740;2023-02-28T00:05:32;-1.40;99.90
4964;DHT22;2497;47.410;9.740;2023-02-28T00:07:59;-1.50;99.90
4964;DHT22;2497;47.410;9.740;2023-02-28T00:10:28;-1.50;99.90
4964;DHT22;2497;47.410;9.740;2023-02-28T00:13:01;-1.50;99.90
4964;DHT22;2497;47.410;9.740;2023-02-28T00:15:28;-1.50;99.90
4964;DHT22;2497;47.410;9.740;2023-02-28T00:17:56;-1.40;99.90
4964;DHT22;2497;47.410;9.740;2023-02-28T00:20:23;-1.30;99.90
4964;DHT22;2497;47.410;9.740;2023-02-28T00:22:51;-1.30;99.90
4964;DHT22;2497;47.410;9.740;2023-02-28T00:25:22;-1.30;99.90
4964;DHT22;2497;47.410;9.740;2023-02-28T00:27:50;-1.30;99.90
4964;DHT22;2497;47.410;9.740;2023-02-28T00:30:20;-1.30;99.90
4964;DHT22;2497;47.410;9.740;2023-02-28T00:32:48;-1.30;99.90
4964;DHT22;2497;47.410;9.740;2023-02-28T00:35:15;-1.30;99.90
4964;DHT22;2497;47.410;9.740;2023-02-28T00:37:43;-1.20;99.90
4964;DHT22;2497;47.410;9.740;2023-02-28T00:40:11;-1.20;99.90
4964;DHT22;2497;47.410;9.740;2023-02-28T00:42:38;-1.20;99.90
4964;DHT22;2497;47.410;9.740;2023-02-28T00:45:06;-1.20;99.90
4964;DHT22;2497;47.410;9.740;2023-02-28T00:47:35;-1.20;99.90
4964;DHT22;2497;47.410;9.740;2023-02-28T00:50:04;-1.20;99.90
4964;DHT22;2497;47.410;9.740;2023-02-28T00:52:31;-1.20;99.90
4964;DHT22;2497;47.410;9.740;2023-02-28T00:54:58;-1.20;99.90
4964;DHT22;2497;47.410;9.740;2023-02-28T00:57:25;-1.20;99.90
4964;DHT22;2497;47.410;9.740;2023-02-28T00:59:53;-1.30;99.90
4964;DHT22;2497;47.410;9.740;2023-02-28T01:02:21;-1.30;99.90
4964;DHT22;2497;47.410;9.740;2023-02-28T01:04:49;-1.40;99.90
4964;DHT22;2497;47.410;9.740;2023-02-28T01:07:17;-1.50;99.90
4964;DHT22;2497;47.410;9.740;2023-02-28T01:09:44;-1.50;99.90
4964;DHT22;2497;47.410;9.740;2023-02-28T01:12:11;-1.50;99.90
4964;DHT22;2497;47.410;9.740;2023-02-28T01:14:38;-1.50;99.90
4964;DHT22;2497;47.410;9.740;2023-02-28T01:17:05;-1.60;99.90
4964;DHT22;2497;47.410;9.740;2023-02-28T01:19:32;-1.50;99.90
4964;DHT22;2497;47.410;9.740;2023-02-28T01:22:02;-1.60;99.90
4964;DHT22;2497;47.410;9.740;2023-02-28T01:24:30;-1.50;99.90
4964;DHT22;2497;47.410;9.740;2023-02-28T01:26:57;-1.60;99.90
4964;DHT22;2497;47.410;9.740;2023-02-28T01:29:24;-1.60;99.90
4964;DHT22;2497;47.410;9.740;2023-02-28T01:31:51;-1.70;99.90
4964;DHT22;2497;47.410;9.740;2023-02-28T01:34:18;-1.60;99.90
4964;DHT22;2497;47.410;9.740;2023-02-28T01:36:45;-1.70;99.90
4964;DHT22;2497;47.410;9.740;2023-02-28T01:39:14;-1.70;99.90
4964;DHT22;2497;47.410;9.740;2023-02-28T01:41:41;-1.70;99.90
4964;DHT22;2497;47.410;9.740;2023-02-28T01:47:09;-1.70;99.90
4964;DHT22;2497;47.410;9.740;2023-02-28T01:49:36;-1.70;99.90
4964;DHT22;2497;47.410;9.740;2023-02-28T01:52:04;-1.80;99.90
4964;DHT22;2497;47.410;9.740;2023-02-28T01:54:34;-1.80;99.90
4964;DHT22;2497;47.410;9.740;2023-02-28T01:57:06;-1.80;99.90
4964;DHT22;2497;47.410;9.740;2023-02-28T01:59:39;-1.80;99.90
4964;DHT22;2497;47.410;9.740;2023-02-28T02:02:11;-1.80;99.90
4964;DHT22;2497;47.410;9.740;2023-02-28T02:04:41;-1.90;99.90
4964;DHT22;2497;47.410;9.740;2023-02-28T02:07:11;-1.80;99.90
4964;DHT22;2497;47.410;9.740;2023-02-28T02:09:41;-1.80;99.90
4964;DHT22;2497;47.410;9.740;2023-02-28T02:12:19;-1.80;99.90
4964;DHT22;2497;47.410;9.740;2023-02-28T02:18:23;-1.90;99.90
4964;DHT22;2497;47.410;9.740;2023-02-28T02:27:26;-1.90;99.90
4964;DHT22;2497;47.410;9.740;2023-02-28T02:33:06;-1.80;99.90
4964;DHT22;2497;47.410;9.740;2023-02-28T02:35:41;-1.80;99.90
4964;DHT22;2497;47.410;9.740;2023-02-28T02:38:17;-1.80;99.90
4964;DHT22;2497;47.410;9.740;2023-02-28T02:40:54;-1.80;99.90
4964;DHT22;2497;47.410;9.740;2023-02-28T02:43:26;-1.90;99.90
4964;DHT22;2497;47.410;9.740;2023-02-28T02:46:01;-1.90;99.90
4964;DHT22;2497;47.410;9.740;2023-02-28T02:48:33;-1.90;99.90
4964;DHT22;2497;47.410;9.740;2023-02-28T02:51:07;-1.90;99.90
4964;DHT22;2497;47.410;9.740;2023-02-28T02:53:41;-1.80;99.90
4964;DHT22;2497;47.410;9.740;2023-02-28T02:56:09;-1.90;99.90
4964;DHT22;2497;47.410;9.740;2023-02-28T02:58:40;-1.90;99.90
4964;DHT22;2497;47.410;9.740;2023-02-28T03:01:12;-1.90;99.90
4964;DHT22;2497;47.410;9.740;2023-02-28T03:03:41;-1.80;99.90
4964;DHT22;2497;47.410;9.740;2023-02-28T03:06:10;-1.70;99.90
4964;DHT22;2497;47.410;9.740;2023-02-28T03:08:38;-1.70;99.90
4964;DHT22;2497;47.410;9.740;2023-02-28T03:11:10;-1.70;99.90
4964;DHT22;2497;47.410;9.740;2023-02-28T03:16:40;-1.60;99.90
4964;DHT22;2497;47.410;9.740;2023-02-28T03:19:43;-1.60;99.90
4964;DHT22;2497;47.410;9.740;2023-02-28T03:22:24;-1.60;99.90
4964;DHT22;2497;47.410;9.740;2023-02-28T03:24:59;-1.60;99.90
4964;DHT22;2497;47.410;9.740;2023-02-28T03:27:30;-1.60;99.90
4964;DHT22;2497;47.410;9.740;2023-02-28T03:30:01;-1.50;99.90
4964;DHT22;2497;47.410;9.740;2023-02-28T03:32:33;-1.50;99.90
4964;DHT22;2497;47.410;9.740;2023-02-28T03:35:06;-1.40;99.90
4964;DHT22;2497;47.410;9.740;2023-02-28T03:37:38;-1.40;99.90
4964;DHT22;2497;47.410;9.740;2023-02-28T03:40:09;-1.30;99.90
4964;DHT22;2497;47.410;9.740;2023-02-28T03:42:40;-1.30;99.90
4964;DHT22;2497;47.410;9.740;2023-02-28T03:45:11;-1.30;99.90
4964;DHT22;2497;47.410;9.740;2023-02-28T03:47:43;-1.30;99.90
4964;DHT22;2497;47.410;9.740;2023-02-28T03:50:16;-1.30;99.90
4964;DHT22;2497;47.410;9.740;2023-02-28T03:52:48;-1.20;99.90
4964;DHT22;2497;47.410;9.740;2023-02-28T03:55:17;-1.30;99.90
4964;DHT22;2497;47.410;9.740;2023-02-28T03:57:53;-1.30;99.90
4964;DHT22;2497;47.410;9.740;2023-02-28T04:00:28;-1.30;99.90
4964;DHT22;2497;47.410;9.740;2023-02-28T04:02:58;-1.30;99.90
4964;DHT22;2497;47.410;9.740;2023-02-28T04:05:27;-1.30;99.90
4964;DHT22;2497;47.410;9.740;2023-02-28T04:08:03;-1.30;99.90
4964;DHT22;2497;47.410;9.740;2023-02-28T04:10:30;-1.30;99.90
4964;DHT22;2497;47.410;9.740;2023-02-28T04:12:58;-1.20;99.90
4964;DHT22;2497;47.410;9.740;2023-02-28T04:15:25;-1.20;99.90
4964;DHT22;2497;47.410;9.740;2023-02-28T04:17:53;-1.10;99.90
4964;DHT22;2497;47.410;9.740;2023-02-28T04:20:20;-1.10;99.90
4964;DHT22;2497;47.410;9.740;2023-02-28T04:22:47;-1.10;99.90
4964;DHT22;2497;47.410;9.740;2023-02-28T04:25:16;-1.10;99.90
4964;DHT22;2497;47.410;9.740;2023-02-28T04:27:43;-1.00;99.90
4964;DHT22;2497;47.410;9.740;2023-02-28T04:30:11;-1.10;99.90
4964;DHT22;2497;47.410;9.740;2023-02-28T04:32:38;-1.00;99.90
4964;DHT22;2497;47.410;9.740;2023-02-28T04:35:06;-1.00;99.90
4964;DHT22;2497;47.410;9.740;2023-02-28T04:37:33;-1.00;99.90
4964;DHT22;2497;47.410;9.740;2023-02-28T04:40:03;-0.90;99.90
4964;DHT22;2497;47.410;9.740;2023-02-28T04:42:32;-0.90;99.90
4964;DHT22;2497;47.410;9.740;2023-02-28T04:45:01;-0.90;99.90
4964;DHT22;2497;47.410;9.740;2023-02-28T04:47:29;-0.90;99.90
4964;DHT22;2497;47.410;9.740;2023-02-28T04:49:56;-0.90;99.90
4964;DHT22;2497;47.410;9.740;2023-02-28T04:52:23;-0.90;99.90
4964;DHT22;2497;47.410;9.740;2023-02-28T04:54:50;-0.90;99.90
4964;DHT22;2497;47.410;9.740;2023-02-28T04:57:17;-0.90;99.90
4964;DHT22;2497;47.410;9.740;2023-02-28T04:59:46;-0.80;99.90
4964;DHT22;2497;47.410;9.740;2023-02-28T05:02:13;-0.90;99.90
4964;DHT22;2497;47.410;9.740;2023-02-28T05:04:40;-0.80;99.90
4964;DHT22;2497;47.410;9.740;2023-02-28T05:07:07;-0.90;99.90
4964;DHT22;2497;47.410;9.740;2023-02-28T05:09:35;-0.80;99.90
4964;DHT22;2497;47.410;9.740;2023-02-28T05:12:02;-0.90;99.90
4964;DHT22;2497;47.410;9.740;2023-02-28T05:14:29;-0.90;99.90
4964;DHT22;2497;47.410;9.740;2023-02-28T05:16:58;-1.00;99.90
4964;DHT22;2497;47.410;9.740;2023-02-28T05:19:25;-1.00;99.90
4964;DHT22;2497;47.410;9.740;2023-02-28T05:21:53;-1.10;99.90
4964;DHT22;2497;47.410;9.740;2023-02-28T05:24:21;-1.20;99.90
4964;DHT22;2497;47.410;9.740;2023-02-28T05:26:51;-1.20;99.90
4964;DHT22;2497;47.410;9.740;2023-02-28T05:29:18;-1.30;99.90
4964;DHT22;2497;47.410;9.740;2023-02-28T05:31:46;-1.30;99.90
4964;DHT22;2497;47.410;9.740;2023-02-28T05:34:14;-1.30;99.90
4964;DHT22;2497;47.410;9.740;2023-02-28T05:36:42;-1.40;99.90
4964;DHT22;2497;47.410;9.740;2023-02-28T05:39:09;-1.50;99.90
4964;DHT22;2497;47.410;9.740;2023-02-28T05:41:39;-1.50;99.90
4964;DHT22;2497;47.410;9.740;2023-02-28T05:44:07;-1.60;99.90
4964;DHT22;2497;47.410;9.740;2023-02-28T05:46:34;-1.60;99.90
4964;DHT22;2497;47.410;9.740;2023-02-28T05:49:03;-1.60;99.90
4964;DHT22;2497;47.410;9.740;2023-02-28T05:51:31;-1.50;99.90
4964;DHT22;2497;47.410;9.740;2023-02-28T05:54:00;-1.70;99.90
4964;DHT22;2497;47.410;9.740;2023-02-28T05:56:28;-1.80;99.90
4964;DHT22;2497;47.410;9.740;2023-02-28T05:58:55;-1.70;99.90
4964;DHT22;2497;47.410;9.740;2023-02-28T06:01:30;-1.90;99.90
4964;DHT22;2497;47.410;9.740;2023-02-28T06:03:58;-2.00;99.90
4964;DHT22;2497;47.410;9.740;2023-02-28T06:06:25;-2.00;99.90
4964;DHT22;2497;47.410;9.740;2023-02-28T06:08:54;-2.00;99.90
4964;DHT22;2497;47.410;9.740;2023-02-28T06:11:21;-2.10;99.90
4964;DHT22;2497;47.410;9.740;2023-02-28T06:13:53;-2.00;99.90
4964;DHT22;2497;47.410;9.740;2023-02-28T06:16:21;-2.00;99.90
4964;DHT22;2497;47.410;9.740;2023-02-28T06:18:48;-2.10;99.90
4964;DHT22;2497;47.410;9.740;2023-02-28T06:21:15;-2.00;99.90
4964;DHT22;2497;47.410;9.740;2023-02-28T06:23:42;-2.00;99.90
4964;DHT22;2497;47.410;9.740;2023-02-28T06:26:11;-2.00;99.90
4964;DHT22;2497;47.410;9.740;2023-02-28T06:28:38;-2.00;99.90
4964;DHT22;2497;47.410;9.740;2023-02-28T06:31:09;-2.00;99.90
4964;DHT22;2497;47.410;9.740;2023-02-28T06:33:37;-1.90;99.90
4964;DHT22;2497;47.410;9.740;2023-02-28T06:36:05;-1.90;99.90
4964;DHT22;2497;47.410;9.740;2023-02-28T06:38:33;-1.90;99.90
4964;DHT22;2497;47.410;9.740;2023-02-28T06:41:00;-1.80;99.90
4964;DHT22;2497;47.410;9.740;2023-02-28T06:43:31;-1.80;99.90
4964;DHT22;2497;47.410;9.740;2023-02-28T06:46:00;-1.70;99.90
4964;DHT22;2497;47.410;9.740;2023-02-28T06:48:28;-1.80;99.90
4964;DHT22;2497;47.410;9.740;2023-02-28T06:51:02;-1.80;99.90
4964;DHT22;2497;47.410;9.740;2023-02-28T06:53:34;-1.80;99.90
4964;DHT22;2497;47.410;9.740;2023-02-28T06:56:04;-1.70;99.90
4964;DHT22;2497;47.410;9.740;2023-02-28T06:58:34;-1.60;99.90
4964;DHT22;2497;47.410;9.740;2023-02-28T07:01:01;-1.50;99.90
4964;DHT22;2497;47.410;9.740;2023-02-28T07:03:29;-1.40;99.90
4964;DHT22;2497;47.410;9.740;2023-02-28T07:05:56;-1.30;99.90
4964;DHT22;2497;47.410;9.740;2023-02-28T07:08:23;-1.10;99.90
4964;DHT22;2497;47.410;9.740;2023-02-28T07:10:52;-0.90;99.90
4964;DHT22;2497;47.410;9.740;2023-02-28T07:13:20;-0.90;99.90
4964;DHT22;2497;47.410;9.740;2023-02-28T07:15:54;-0.70;99.90
4964;DHT22;2497;47.410;9.740;2023-02-28T07:18:22;-0.30;99.90
4964;DHT22;2497;47.410;9.740;2023-02-28T07:20:49;0.00;99.90
4964;DHT22;2497;47.410;9.740;2023-02-28T07:23:17;-0.10;99.90
4964;DHT22;2497;47.410;9.740;2023-02-28T07:25:44;-0.30;99.90
4964;DHT22;2497;47.410;9.740;2023-02-28T07:28:11;0.40;99.90
4964;DHT22;2497;47.410;9.740;2023-02-28T07:30:38;1.00;99.90
4964;DHT22;2497;47.410;9.740;2023-02-28T07:33:07;1.00;99.90
4964;DHT22;2497;47.410;9.740;2023-02-28T07:35:34;1.30;99.90
4964;DHT22;2497;47.410;9.740;2023-02-28T07:38:02;0.80;99.90
4964;DHT22;2497;47.410;9.740;2023-02-28T07:40:29;0.70;99.90
4964;DHT22;2497;47.410;9.740;2023-02-28T07:42:59;0.70;99.90
4964;DHT22;2497;47.410;9.740;2023-02-28T07:45:26;0.60;99.90
4964;DHT22;2497;47.410;9.740;2023-02-28T07:47:55;0.50;99.90
4964;DHT22;2497;47.410;9.740;2023-02-28T07:50:23;0.50;99.90
4964;DHT22;2497;47.410;9.740;2023-02-28T07:52:51;0.60;99.90
4964;DHT22;2497;47.410;9.740;2023-02-28T07:55:18;0.60;99.90
4964;DHT22;2497;47.410;9.740;2023-02-28T07:57:45;0.50;99.90
4964;DHT22;2497;47.410;9.740;2023-02-28T08:00:13;0.50;99.90
4964;DHT22;2497;47.410;9.740;2023-02-28T08:02:40;0.40;99.90
4964;DHT22;2497;47.410;9.740;2023-02-28T08:05:07;0.40;99.90
4964;DHT22;2497;47.410;9.740;2023-02-28T08:07:36;0.30;99.90
4964;DHT22;2497;47.410;9.740;2023-02-28T08:10:03;0.30;99.90
4964;DHT22;2497;47.410;9.740;2023-02-28T08:12:32;0.20;99.90
4964;DHT22;2497;47.410;9.740;2023-02-28T08:14:59;0.50;99.90
4964;DHT22;2497;47.410;9.740;2023-02-28T08:17:26;0.60;99.90
4964;DHT22;2497;47.410;9.740;2023-02-28T08:19:53;0.60;99.90
4964;DHT22;2497;47.410;9.740;2023-02-28T08:22:20;0.60;99.90
4964;DHT22;2497;47.410;9.740;2023-02-28T08:24:48;0.60;99.90
4964;DHT22;2497;47.410;9.740;2023-02-28T08:27:16;0.50;99.90
4964;DHT22;2497;47.410;9.740;2023-02-28T08:29:43;0.70;99.90
4964;DHT22;2497;47.410;9.740;2023-02-28T08:32:10;0.90;99.90
4964;DHT22;2497;47.410;9.740;2023-02-28T08:34:38;0.90;99.90
4964;DHT22;2497;47.410;9.740;2023-02-28T08:37:05;0.90;99.90
4964;DHT22;2497;47.410;9.740;2023-02-28T08:39:34;0.90;99.90
4964;DHT22;2497;47.410;9.740;2023-02-28T08:42:03;1.00;99.90
4964;DHT22;2497;47.410;9.740;2023-02-28T08:44:30;1.40;99.90
4964;DHT22;2497;47.410;9.740;2023-02-28T08:46:57;1.60;99.90
4964;DHT22;2497;47.410;9.740;2023-02-28T08:49:24;1.60;99.90
4964;DHT22;2497;47.410;9.740;2023-02-28T08:51:52;1.20;99.90
4964;DHT22;2497;47.410;9.740;2023-02-28T08:54:20;1.20;99.90
4964;DHT22;2497;47.410;9.740;2023-02-28T08:56:48;1.40;99.90
4964;DHT22;2497;47.410;9.740;2023-02-28T08:59:17;1.50;99.90
4964;DHT22;2497;47.410;9.740;2023-02-28T09:01:44;1.60;99.90
4964;DHT22;2497;47.410;9.740;2023-02-28T09:04:11;1.70;99.90
4964;DHT22;2497;47.410;9.740;2023-02-28T09:06:38;1.70;99.90
4964;DHT22;2497;47.410;9.740;2023-02-28T09:09:06;1.90;99.90
4964;DHT22;2497;47.410;9.740;2023-02-28T09:11:34;2.00;99.90
4964;DHT22;2497;47.410;9.740;2023-02-28T09:14:01;2.00;99.90
4964;DHT22;2497;47.410;9.740;2023-02-28T09:16:32;2.00;99.90
4964;DHT22;2497;47.410;9.740;2023-02-28T09:18:59;2.30;99.90
4964;DHT22;2497;47.410;9.740;2023-02-28T09:21:27;2.40;99.90
4964;DHT22;2497;47.410;9.740;2023-02-28T09:23:54;2.60;99.90
4964;DHT22;2497;47.410;9.740;2023-02-28T09:26:23;2.40;99.90
4964;DHT22;2497;47.410;9.740;2023-02-28T09:28:51;2.50;99.90
4964;DHT22;2497;47.410;9.740;2023-02-28T09:31:21;2.90;99.90
4964;DHT22;2497;47.410;9.740;2023-02-28T09:33:51;3.00;99.90
4964;DHT22;2497;47.410;9.740;2023-02-28T09:36:19;3.20;99.90
4964;DHT22;2497;47.410;9.740;2023-02-28T09:38:46;3.10;99.90
4964;DHT22;2497;47.410;9.740;2023-02-28T09:41:16;3.40;99.90
4964;DHT22;2497;47.410;9.740;2023-02-28T09:43:45;3.50;99.90
4964;DHT22;2497;47.410;9.740;2023-02-28T09:46:28;3.90;99.90
4964;DHT22;2497;47.410;9.740;2023-02-28T09:49:00;4.20;99.90
4964;DHT22;2497;47.410;9.740;2023-02-28T09:51:37;4.00;99.90
4964;DHT22;2497;47.410;9.740;2023-02-28T09:54:10;3.80;99.90
4964;DHT22;2497;47.410;9.740;2023-02-28T09:56:40;3.60;99.90
4964;DHT22;2497;47.410;9.740;2023-02-28T09:59:14;3.50;99.90
4964;DHT22;2497;47.410;9.740;2023-02-28T10:01:48;3.70;99.90
4964;DHT22;2497;47.410;9.740;2023-02-28T10:04:33;3.70;99.90
4964;DHT22;2497;47.410;9.740;2023-02-28T10:07:04;3.90;99.90
4964;DHT22;2497;47.410;9.740;2023-02-28T10:09:33;4.00;99.90
4964;DHT22;2497;47.410;9.740;2023-02-28T10:12:04;3.80;99.90
4964;DHT22;2497;47.410;9.740;2023-02-28T10:14:34;3.80;99.90
4964;DHT22;2497;47.410;9.740;2023-02-28T10:17:04;3.80;99.90
4964;DHT22;2497;47.410;9.740;2023-02-28T10:19:42;3.80;99.90
4964;DHT22;2497;47.410;9.740;2023-02-28T10:22:13;4.00;99.90
4964;DHT22;2497;47.410;9.740;2023-02-28T10:24:42;4.10;99.90
4964;DHT22;2497;47.410;9.740;2023-02-28T10:27:14;4.10;99.90
4964;DHT22;2497;47.410;9.740;2023-02-28T10:29:45;4.00;99.90
4964;DHT22;2497;47.410;9.740;2023-02-28T10:32:15;3.50;99.90
4964;DHT22;2497;47.410;9.740;2023-02-28T10:34:46;3.30;99.90
4964;DHT22;2497;47.410;9.740;2023-02-28T10:37:17;3.40;99.90
4964;DHT22;2497;47.410;9.740;2023-02-28T10:39:47;3.30;99.90
4964;DHT22;2497;47.410;9.740;2023-02-28T10:42:23;3.50;99.90
4964;DHT22;2497;47.410;9.740;2023-02-28T10:45:05;3.70;99.90
4964;DHT22;2497;47.410;9.740;2023-02-28T10:47:34;3.60;99.90
4964;DHT22;2497;47.410;9.740;2023-02-28T10:50:27;3.80;99.90
4964;DHT22;2497;47.410;9.740;2023-02-28T10:52:55;4.10;99.90
4964;DHT22;2497;47.410;9.740;2023-02-28T10:55:31;3.90;99.90
4964;DHT22;2497;47.410;9.740;2023-02-28T10:57:58;3.90;99.90
4964;DHT22;2497;47.410;9.740;2023-02-28T11:00:32;4.60;99.90
4964;DHT22;2497;47.410;9.740;2023-02-28T11:03:00;4.90;99.90
4964;DHT22;2497;47.410;9.740;2023-02-28T11:05:30;5.10;99.90
4964;DHT22;2497;47.410;9.740;2023-02-28T11:08:04;5.10;99.90
4964;DHT22;2497;47.410;9.740;2023-02-28T11:10:33;4.30;99.90
4964;DHT22;2497;47.410;9.740;2023-02-28T11:13:01;4.60;99.90
4964;DHT22;2497;47.410;9.740;2023-02-28T11:15:30;4.90;99.90
4964;DHT22;2497;47.410;9.740;2023-02-28T11:17:59;5.40;99.90
4964;DHT22;2497;47.410;9.740;2023-02-28T11:20:30;5.40;99.90
4964;DHT22;2497;47.410;9.740;2023-02-28T11:23:01;5.70;99.90
4964;DHT22;2497;47.410;9.740;2023-02-28T11:25:30;6.10;99.90
4964;DHT22;2497;47.410;9.740;2023-02-28T11:28:00;6.20;99.90
4964;DHT22;2497;47.410;9.740;2023-02-28T11:30:31;6.30;99.90
4964;DHT22;2497;47.410;9.740;2023-02-28T11:32:59;6.10;99.90
4964;DHT22;2497;47.410;9.740;2023-02-28T11:35:31;6.30;99.90
4964;DHT22;2497;47.410;9.740;2023-02-28T11:38:00;6.20;99.90
4964;DHT22;2497;47.410;9.740;2023-02-28T11:40:39;6.00;99.90
4964;DHT22;2497;47.410;9.740;2023-02-28T11:43:20;6.00;99.90
4964;DHT22;2497;47.410;9.740;2023-02-28T11:46:07;6.40;99.90
4964;DHT22;2497;47.410;9.740;2023-02-28T11:48:47;6.50;99.90
4964;DHT22;2497;47.410;9.740;2023-02-28T11:51:23;5.90;99.90
4964;DHT22;2497;47.410;9.740;2023-02-28T11:54:13;5.30;99.90
4964;DHT22;2497;47.410;9.740;2023-02-28T11:56:47;5.60;99.90
4964;DHT22;2497;47.410;9.740;2023-02-28T11:59:28;6.40;99.90
4964;DHT22;2497;47.410;9.740;2023-02-28T12:02:08;7.30;99.90
4964;DHT22;2497;47.410;9.740;2023-02-28T12:04:50;7.50;99.90
4964;DHT22;2497;47.410;9.740;2023-02-28T12:07:29;7.80;99.90
4964;DHT22;2497;47.410;9.740;2023-02-28T12:10:04;7.80;99.90
4964;DHT22;2497;47.410;9.740;2023-02-28T12:12:51;7.30;99.90
4964;DHT22;2497;47.410;9.740;2023-02-28T12:16:06;7.60;99.90
4964;DHT22;2497;47.410;9.740;2023-02-28T12:18:53;7.00;99.90
4964;DHT22;2497;47.410;9.740;2023-02-28T12:21:30;6.30;99.90
4964;DHT22;2497;47.410;9.740;2023-02-28T12:27:00;6.20;99.90
4964;DHT22;2497;47.410;9.740;2023-02-28T12:29:30;5.90;99.90
4964;DHT22;2497;47.410;9.740;2023-02-28T12:32:01;5.80;99.90
4964;DHT22;2497;47.410;9.740;2023-02-28T12:34:33;5.70;99.90
4964;DHT22;2497;47.410;9.740;2023-02-28T12:37:07;5.80;99.90
4964;DHT22;2497;47.410;9.740;2023-02-28T12:39:40;5.70;99.90
4964;DHT22;2497;47.410;9.740;2023-02-28T12:42:13;5.80;99.90
4964;DHT22;2497;47.410;9.740;2023-02-28T12:44:46;5.80;99.90
4964;DHT22;2497;47.410;9.740;2023-02-28T12:47:17;6.10;99.90
4964;DHT22;2497;47.410;9.740;2023-02-28T12:49:48;5.70;99.90
4964;DHT22;2497;47.410;9.740;2023-02-28T12:52:22;5.10;99.90
4964;DHT22;2497;47.410;9.740;2023-02-28T12:54:53;4.80;99.90
4964;DHT22;2497;47.410;9.740;2023-02-28T12:57:31;5.20;99.90
4964;DHT22;2497;47.410;9.740;2023-02-28T13:00:04;5.10;99.90
4964;DHT22;2497;47.410;9.740;2023-02-28T13:03:04;4.90;99.90
4964;DHT22;2497;47.410;9.740;2023-02-28T13:06:05;4.60;99.90
4964;DHT22;2497;47.410;9.740;2023-02-28T13:09:01;4.70;99.90
4964;DHT22;2497;47.410;9.740;2023-02-28T13:11:37;4.70;99.90
4964;DHT22;2497;47.410;9.740;2023-02-28T13:14:15;4.70;99.90
4964;DHT22;2497;47.410;9.740;2023-02-28T13:16:57;4.90;99.90
4964;DHT22;2497;47.410;9.740;2023-02-28T13:19:26;5.00;99.90
4964;DHT22;2497;47.410;9.740;2023-02-28T13:21:55;4.90;99.90
4964;DHT22;2497;47.410;9.740;2023-02-28T13:24:48;4.70;99.90
4964;DHT22;2497;47.410;9.740;2023-02-28T13:27:35;4.80;99.90
4964;DHT22;2497;47.410;9.740;2023-02-28T13:33:30;4.60;99.90
4964;DHT22;2497;47.410;9.740;2023-02-28T13:36:08;4.60;99.90
4964;DHT22;2497;47.410;9.740;2023-02-28T13:38:38;4.60;99.90
4964;DHT22;2497;47.410;9.740;2023-02-28T13:41:44;4.80;99.90
4964;DHT22;2497;47.410;9.740;2023-02-28T13:44:15;5.00;99.90
4964;DHT22;2497;47.410;9.740;2023-02-28T13:49:52;5.00;99.90
4964;DHT22;2497;47.410;9.740;2023-02-28T13:52:22;4.80;99.90
4964;DHT22;2497;47.410;9.740;2023-02-28T13:55:10;4.50;99.90
4964;DHT22;2497;47.410;9.740;2023-02-28T13:57:53;4.60;99.90
4964;DHT22;2497;47.410;9.740;2023-02-28T14:00:34;4.70;99.90
4964;DHT22;2497;47.410;9.740;2023-02-28T14:03:29;4.70;99.90
4964;DHT22;2497;47.410;9.740;2023-02-28T14:06:16;5.10;99.90
4964;DHT22;2497;47.410;9.740;2023-02-28T14:08:51;5.40;99.90
4964;DHT22;2497;47.410;9.740;2023-02-28T14:11:33;5.50;99.90
4964;DHT22;2497;47.410;9.740;2023-02-28T14:14:01;5.50;99.90
4964;DHT22;2497;47.410;9.740;2023-02-28T14:16:37;5.30;99.90
4964;DHT22;2497;47.410;9.740;2023-02-28T14:19:11;5.20;99.90
4964;DHT22;2497;47.410;9.740;2023-02-28T14:21:47;5.00;99.90
4964;DHT22;2497;47.410;9.740;2023-02-28T14:27:27;4.50;99.90
4964;DHT22;2497;47.410;9.740;2023-02-28T14:30:17;4.60;99.90
4964;DHT22;2497;47.410;9.740;2023-02-28T14:33:00;4.70;99.90
4964;DHT22;2497;47.410;9.740;2023-02-28T14:35:43;4.80;99.90
4964;DHT22;2497;47.410;9.740;2023-02-28T14:38:18;4.60;99.90
4964;DHT22;2497;47.410;9.740;2023-02-28T14:40:49;4.50;99.90
4964;DHT22;2497;47.410;9.740;2023-02-28T14:43:21;4.50;99.90
4964;DHT22;2497;47.410;9.740;2023-02-28T14:45:52;4.50;99.90
4964;DHT22;2497;47.410;9.740;2023-02-28T14:48:23;4.40;99.90
4964;DHT22;2497;47.410;9.740;2023-02-28T14:50:52;4.40;99.90
4964;DHT22;2497;47.410;9.740;2023-02-28T14:53:22;4.20;99.90
4964;DHT22;2497;47.410;9.740;2023-02-28T14:55:50;4.20;99.90
4964;DHT22;2497;47.410;9.740;2023-02-28T14:58:26;4.20;99.90
4964;DHT22;2497;47.410;9.740;2023-02-28T15:00:56;4.20;99.90
4964;DHT22;2497;47.410;9.740;2023-02-28T15:03:31;4.10;99.90
4964;DHT22;2497;47.410;9.740;2023-02-28T15:06:00;3.90;99.90
4964;DHT22;2497;47.410;9.740;2023-02-28T15:08:29;4.00;99.90
4964;DHT22;2497;47.410;9.740;2023-02-28T15:11:02;4.00;99.90
4964;DHT22;2497;47.410;9.740;2023-02-28T15:13:36;3.70;99.90
4964;DHT22;2497;47.410;9.740;2023-02-28T15:16:05;3.60;99.90
4964;DHT22;2497;47.410;9.740;2023-02-28T15:18:44;3.50;99.90
4964;DHT22;2497;47.410;9.740;2023-02-28T15:21:14;3.50;99.90
4964;DHT22;2497;47.410;9.740;2023-02-28T15:23:43;3.50;99.90
4964;DHT22;2497;47.410;9.740;2023-02-28T15:26:14;3.50;99.90
4964;DHT22;2497;47.410;9.740;2023-02-28T15:28:42;3.40;99.90
4964;DHT22;2497;47.410;9.740;2023-02-28T15:31:20;3.30;99.90
4964;DHT22;2497;47.410;9.740;2023-02-28T15:33:58;3.10;99.90
4964;DHT22;2497;47.410;9.740;2023-02-28T15:36:30;3.10;99.90
4964;DHT22;2497;47.410;9.740;2023-02-28T15:38:59;3.20;99.90
4964;DHT22;2497;47.410;9.740;2023-02-28T15:41:28;3.20;99.90
4964;DHT22;2497;47.410;9.740;2023-02-28T15:44:16;3.10;99.90
4964;DHT22;2497;47.410;9.740;2023-02-28T15:46:53;3.20;99.90
4964;DHT22;2497;47.410;9.740;2023-02-28T15:49:22;3.20;99.90
4964;DHT22;2497;47.410;9.740;2023-02-28T15:51:51;3.20;99.90
4964;DHT22;2497;47.410;9.740;2023-02-28T15:54:21;2.90;99.90
4964;DHT22;2497;47.410;9.740;2023-02-28T15:56:51;2.80;99.90
4964;DHT22;2497;47.410;9.740;2023-02-28T15:59:21;2.70;99.90
4964;DHT22;2497;47.410;9.740;2023-02-28T16:02:03;2.60;99.90
4964;DHT22;2497;47.410;9.740;2023-02-28T16:04:32;2.60;99.90
4964;DHT22;2497;47.410;9.740;2023-02-28T16:07:02;2.60;99.90
4964;DHT22;2497;47.410;9.740;2023-02-28T16:09:31;2.50;99.90
4964;DHT22;2497;47.410;9.740;2023-02-28T16:12:00;2.50;99.90
4964;DHT22;2497;47.410;9.740;2023-02-28T16:14:29;2.40;99.90
4964;DHT22;2497;47.410;9.740;2023-02-28T16:17:03;2.40;99.90
4964;DHT22;2497;47.410;9.740;2023-02-28T16:19:32;2.50;99.90
4964;DHT22;2497;47.410;9.740;2023-02-28T16:22:00;2.50;99.90
4964;DHT22;2497;47.410;9.740;2023-02-28T16:24:27;2.60;99.90
4964;DHT22;2497;47.410;9.740;2023-02-28T16:26:56;2.70;99.90
4964;DHT22;2497;47.410;9.740;2023-02-28T16:29:25;2.60;99.90
4964;DHT22;2497;47.410;9.740;2023-02-28T16:31:54;2.60;99.90
4964;DHT22;2497;47.410;9.740;2023-02-28T16:34:22;2.60;99.90
4964;DHT22;2497;47.410;9.740;2023-02-28T16:36:51;2.60;99.90
4964;DHT22;2497;47.410;9.740;2023-02-28T16:39:19;2.60;99.90
4964;DHT22;2497;47.410;9.740;2023-02-28T16:41:48;2.70;99.90
4964;DHT22;2497;47.410;9.740;2023-02-28T16:44:23;2.70;99.90
4964;DHT22;2497;47.410;9.740;2023-02-28T16:46:52;2.70;99.90
4964;DHT22;2497;47.410;9.740;2023-02-28T16:49:19;2.60;99.90
4964;DHT22;2497;47.410;9.740;2023-02-28T16:51:47;2.40;99.90
4964;DHT22;2497;47.410;9.740;2023-02-28T16:54:15;2.40;99.90
4964;DHT22;2497;47.410;9.740;2023-02-28T16:56:44;2.40;99.90
4964;DHT22;2497;47.410;9.740;2023-02-28T16:59:13;2.30;99.90
4964;DHT22;2497;47.410;9.740;2023-02-28T17:01:42;2.20;99.90
4964;DHT22;2497;47.410;9.740;2023-02-28T17:04:11;2.10;99.90
4964;DHT22;2497;47.410;9.740;2023-02-28T17:06:40;2.10;99.90